Shenandoah, IA (51601)

2:32 PM CDT on July 31, 2015 (GMT -0500)
Cottage and Maple | | Change Station
CLOSE
Current Station
Personal Weather Station
Location: Shenandoah, IA
Elevation: 1016 ft
Nearby Weather Stations

Elev 1016 ft 40.76 °N, 95.37 °W | Updated 42 seconds ago

Scattered Clouds
Scattered Clouds
88.5 °F
Feels Like 98 °F
N
0.0
Wind Variable Wind from WSW
Gusts 4.0 mph

Today
High -- | Low -- °F
--% Chance of Precip.
Yesterday
High -- | Low -- °F
Precip. -- in
6:16 AM 8:38 PM
Full, 100% visible
Pressure 30.11 in
Visibility 10.0 miles
Clouds Scattered Clouds 3700 ft
Scattered Clouds 4400 ft
Heat Index 98 °F
Dew Point 74 °F
Humidity 63%
Rainfall 0.00 in
Snow Depth Not available.
UV 9 out of 12
Pollen 6.80 out of 12
Air Quality Not available.
Flu Activity Not available.
METAR KSDA 311915Z AUTO 22005KT 10SM SCT037 SCT044 31/24 A3011 RMK AO2

More Conditions Fewer Conditions

Pressure 30.11 in
Visibility 10.0 miles
Clouds Scattered Clouds 3700 ft
Scattered Clouds 4400 ft
Heat Index 98 °F
Dew Point 74 °F
Humidity 63%
Rainfall 0.00 in
Snow Depth Not available.
UV 9 out of 12
Pollen 6.80 out of 12
Air Quality Not available.
Flu Activity Not available.
METAR KSDA 311915Z AUTO 22005KT 10SM SCT037 SCT044 31/24 A3011 RMK AO2

More Conditions Fewer Conditions

10-Day Weather Forecast

×

Almanac

Astronomy

Jul. 31, 2015 Rise Set
Actual Time
Civil Twilight
Nautical Twilight
Astronomical Twilight
Moon
Length of Visible Light
Length of Day
Tomorrow will be .
, % of the Moon is Illuminated

Today's Extremes

State Highs State Lows

Community

WunderPhotos

Upload Photos

1,842,711 photos uploaded!

WunderBlogs® & News

Nearby

Air Quality

  Air Quality AQ Index Pollutant
Not available.

Snow Depth

Station Depth Elevation

Earthquake Activity

City Distance Mag. Time & Date
Minimum magnitude displayed is 2.5.

Coastal Water Temperatures

Place Temperature

Stations

Nearby Weather Stations

Station Location Temp. Windchill Dew Point Humidity Wind Precip. Elev Updated Type